sensor_id;sensor_type;location;lat;lon;timestamp;temperature;humidity
3660;DHT22;1846;51.482;7.224;2023-05-13T00:01:15;13.30;1.00
3660;DHT22;1846;51.482;7.224;2023-05-13T00:03:42;13.30;1.00
3660;DHT22;1846;51.482;7.224;2023-05-13T00:06:08;13.30;1.00
3660;DHT22;1846;51.482;7.224;2023-05-13T00:08:35;13.30;1.00
3660;DHT22;1846;51.482;7.224;2023-05-13T00:11:03;13.30;1.00
3660;DHT22;1846;51.482;7.224;2023-05-13T00:13:30;13.30;1.00
3660;DHT22;1846;51.482;7.224;2023-05-13T00:15:57;13.40;1.00
3660;DHT22;1846;51.482;7.224;2023-05-13T00:18:24;13.40;1.00
3660;DHT22;1846;51.482;7.224;2023-05-13T00:20:51;13.40;1.00
3660;DHT22;1846;51.482;7.224;2023-05-13T00:23:18;13.40;1.00
3660;DHT22;1846;51.482;7.224;2023-05-13T00:25:45;13.50;1.00
3660;DHT22;1846;51.482;7.224;2023-05-13T00:28:13;13.50;1.00
3660;DHT22;1846;51.482;7.224;2023-05-13T00:30:40;13.50;99.90
3660;DHT22;1846;51.482;7.224;2023-05-13T00:33:08;13.40;99.90
3660;DHT22;1846;51.482;7.224;2023-05-13T00:35:35;13.40;99.90
3660;DHT22;1846;51.482;7.224;2023-05-13T00:38:02;13.30;1.00
3660;DHT22;1846;51.482;7.224;2023-05-13T00:40:29;13.30;1.00
3660;DHT22;1846;51.482;7.224;2023-05-13T00:42:56;13.20;1.00
3660;DHT22;1846;51.482;7.224;2023-05-13T00:45:24;13.20;1.00
3660;DHT22;1846;51.482;7.224;2023-05-13T00:47:51;13.20;1.00
3660;DHT22;1846;51.482;7.224;2023-05-13T00:50:18;13.20;1.00
3660;DHT22;1846;51.482;7.224;2023-05-13T00:52:46;13.20;1.00
3660;DHT22;1846;51.482;7.224;2023-05-13T00:55:13;13.20;1.00
3660;DHT22;1846;51.482;7.224;2023-05-13T00:57:40;13.20;1.00
3660;DHT22;1846;51.482;7.224;2023-05-13T01:00:08;13.10;1.00
3660;DHT22;1846;51.482;7.224;2023-05-13T01:02:44;13.10;1.00
3660;DHT22;1846;51.482;7.224;2023-05-13T01:05:19;13.10;1.00
3660;DHT22;1846;51.482;7.224;2023-05-13T01:07:54;13.00;1.00
3660;DHT22;1846;51.482;7.224;2023-05-13T01:10:27;13.00;1.00
3660;DHT22;1846;51.482;7.224;2023-05-13T01:13:00;13.10;1.00
3660;DHT22;1846;51.482;7.224;2023-05-13T01:15:30;13.00;1.00
3660;DHT22;1846;51.482;7.224;2023-05-13T01:18:04;13.00;99.90
3660;DHT22;1846;51.482;7.224;2023-05-13T01:20:32;13.00;99.90
3660;DHT22;1846;51.482;7.224;2023-05-13T01:23:01;13.00;99.90
3660;DHT22;1846;51.482;7.224;2023-05-13T01:25:30;13.00;99.90
3660;DHT22;1846;51.482;7.224;2023-05-13T01:27:57;13.00;99.90
3660;DHT22;1846;51.482;7.224;2023-05-13T01:30:25;13.00;99.90
3660;DHT22;1846;51.482;7.224;2023-05-13T01:32:52;13.00;99.90
3660;DHT22;1846;51.482;7.224;2023-05-13T01:35:20;13.00;99.90
3660;DHT22;1846;51.482;7.224;2023-05-13T01:37:47;13.00;99.90
3660;DHT22;1846;51.482;7.224;2023-05-13T01:40:17;13.00;99.90
3660;DHT22;1846;51.482;7.224;2023-05-13T01:42:44;12.90;99.90
3660;DHT22;1846;51.482;7.224;2023-05-13T01:45:11;12.90;99.90
3660;DHT22;1846;51.482;7.224;2023-05-13T01:47:38;12.90;99.90
3660;DHT22;1846;51.482;7.224;2023-05-13T01:50:06;13.00;99.90
3660;DHT22;1846;51.482;7.224;2023-05-13T01:52:33;13.00;99.90
3660;DHT22;1846;51.482;7.224;2023-05-13T01:55:00;13.00;99.90
3660;DHT22;1846;51.482;7.224;2023-05-13T01:57:28;13.00;1.00
3660;DHT22;1846;51.482;7.224;2023-05-13T01:59:55;13.00;1.00
3660;DHT22;1846;51.482;7.224;2023-05-13T02:02:21;13.00;99.90
3660;DHT22;1846;51.482;7.224;2023-05-13T02:04:48;13.00;92.00
3660;DHT22;1846;51.482;7.224;2023-05-13T02:07:15;13.00;1.00
3660;DHT22;1846;51.482;7.224;2023-05-13T02:09:42;13.00;99.90
3660;DHT22;1846;51.482;7.224;2023-05-13T02:12:09;13.00;90.60
3660;DHT22;1846;51.482;7.224;2023-05-13T02:14:37;13.00;99.90
3660;DHT22;1846;51.482;7.224;2023-05-13T02:17:04;12.90;1.00
3660;DHT22;1846;51.482;7.224;2023-05-13T02:19:31;12.80;99.90
3660;DHT22;1846;51.482;7.224;2023-05-13T02:21:58;12.80;99.90
3660;DHT22;1846;51.482;7.224;2023-05-13T02:24:25;12.80;1.00
3660;DHT22;1846;51.482;7.224;2023-05-13T02:26:51;12.80;1.00
3660;DHT22;1846;51.482;7.224;2023-05-13T02:29:19;12.70;1.00
3660;DHT22;1846;51.482;7.224;2023-05-13T02:31:47;12.70;68.70
3660;DHT22;1846;51.482;7.224;2023-05-13T02:34:14;12.60;99.90
3660;DHT22;1846;51.482;7.224;2023-05-13T02:36:40;12.60;99.90
3660;DHT22;1846;51.482;7.224;2023-05-13T02:39:07;12.50;99.90
3660;DHT22;1846;51.482;7.224;2023-05-13T02:41:34;12.40;99.90
3660;DHT22;1846;51.482;7.224;2023-05-13T02:44:01;12.40;99.90
3660;DHT22;1846;51.482;7.224;2023-05-13T02:46:28;12.30;1.00
3660;DHT22;1846;51.482;7.224;2023-05-13T02:48:56;12.30;1.00
3660;DHT22;1846;51.482;7.224;2023-05-13T02:51:23;12.20;1.00
3660;DHT22;1846;51.482;7.224;2023-05-13T02:53:50;12.20;1.00
3660;DHT22;1846;51.482;7.224;2023-05-13T02:56:17;12.10;1.00
3660;DHT22;1846;51.482;7.224;2023-05-13T02:58:44;12.10;1.00
3660;DHT22;1846;51.482;7.224;2023-05-13T03:01:11;12.10;1.00
3660;DHT22;1846;51.482;7.224;2023-05-13T03:03:38;12.00;1.00
3660;DHT22;1846;51.482;7.224;2023-05-13T03:06:06;12.00;1.00
3660;DHT22;1846;51.482;7.224;2023-05-13T03:08:33;12.00;1.00
3660;DHT22;1846;51.482;7.224;2023-05-13T03:11:00;11.90;1.00
3660;DHT22;1846;51.482;7.224;2023-05-13T03:13:28;11.80;1.00
3660;DHT22;1846;51.482;7.224;2023-05-13T03:15:54;11.80;1.00
3660;DHT22;1846;51.482;7.224;2023-05-13T03:18:21;11.70;1.00
3660;DHT22;1846;51.482;7.224;2023-05-13T03:20:48;11.70;1.00
3660;DHT22;1846;51.482;7.224;2023-05-13T03:23:16;11.70;1.00
3660;DHT22;1846;51.482;7.224;2023-05-13T03:25:43;11.60;1.00
3660;DHT22;1846;51.482;7.224;2023-05-13T03:28:10;11.60;1.00
3660;DHT22;1846;51.482;7.224;2023-05-13T03:30:37;11.60;1.00
3660;DHT22;1846;51.482;7.224;2023-05-13T03:33:04;11.50;1.00
3660;DHT22;1846;51.482;7.224;2023-05-13T03:35:30;11.50;1.00
3660;DHT22;1846;51.482;7.224;2023-05-13T03:37:57;11.60;1.00
3660;DHT22;1846;51.482;7.224;2023-05-13T03:40:25;11.50;1.00
3660;DHT22;1846;51.482;7.224;2023-05-13T03:42:52;11.50;1.00
3660;DHT22;1846;51.482;7.224;2023-05-13T03:45:19;11.40;1.00
3660;DHT22;1846;51.482;7.224;2023-05-13T03:47:46;11.30;1.00
3660;DHT22;1846;51.482;7.224;2023-05-13T03:50:13;11.30;1.00
3660;DHT22;1846;51.482;7.224;2023-05-13T03:52:40;11.30;1.00
3660;DHT22;1846;51.482;7.224;2023-05-13T03:55:07;11.20;1.00
3660;DHT22;1846;51.482;7.224;2023-05-13T03:57:35;11.20;1.00
3660;DHT22;1846;51.482;7.224;2023-05-13T04:00:03;11.20;1.00
3660;DHT22;1846;51.482;7.224;2023-05-13T04:02:29;11.20;1.00
3660;DHT22;1846;51.482;7.224;2023-05-13T04:04:56;11.20;1.00
3660;DHT22;1846;51.482;7.224;2023-05-13T04:07:23;11.20;1.00
3660;DHT22;1846;51.482;7.224;2023-05-13T04:09:50;11.10;1.00
3660;DHT22;1846;51.482;7.224;2023-05-13T04:12:17;11.20;1.00
3660;DHT22;1846;51.482;7.224;2023-05-13T04:14:45;11.20;1.00
3660;DHT22;1846;51.482;7.224;2023-05-13T04:17:12;11.20;1.00
3660;DHT22;1846;51.482;7.224;2023-05-13T04:19:39;11.20;1.00
3660;DHT22;1846;51.482;7.224;2023-05-13T04:22:05;11.20;1.00
3660;DHT22;1846;51.482;7.224;2023-05-13T04:24:32;11.20;1.00
3660;DHT22;1846;51.482;7.224;2023-05-13T04:26:59;11.20;1.00
3660;DHT22;1846;51.482;7.224;2023-05-13T04:29:26;11.20;1.00
3660;DHT22;1846;51.482;7.224;2023-05-13T04:31:54;11.20;1.00
3660;DHT22;1846;51.482;7.224;2023-05-13T04:34:21;11.20;1.00
3660;DHT22;1846;51.482;7.224;2023-05-13T04:36:48;11.20;6.80
3660;DHT22;1846;51.482;7.224;2023-05-13T04:39:14;11.30;1.00
3660;DHT22;1846;51.482;7.224;2023-05-13T04:41:41;11.20;1.00
3660;DHT22;1846;51.482;7.224;2023-05-13T04:44:08;11.20;1.00
3660;DHT22;1846;51.482;7.224;2023-05-13T04:46:35;11.30;1.00
3660;DHT22;1846;51.482;7.224;2023-05-13T04:49:06;11.30;1.00
3660;DHT22;1846;51.482;7.224;2023-05-13T04:51:33;11.40;1.00
3660;DHT22;1846;51.482;7.224;2023-05-13T04:54:00;11.40;1.00
3660;DHT22;1846;51.482;7.224;2023-05-13T04:56:26;11.40;1.00
3660;DHT22;1846;51.482;7.224;2023-05-13T04:58:53;11.50;1.00
3660;DHT22;1846;51.482;7.224;2023-05-13T05:01:20;11.50;1.00
3660;DHT22;1846;51.482;7.224;2023-05-13T05:03:47;11.50;1.00
3660;DHT22;1846;51.482;7.224;2023-05-13T05:06:15;11.60;1.00
3660;DHT22;1846;51.482;7.224;2023-05-13T05:08:42;11.60;1.00
3660;DHT22;1846;51.482;7.224;2023-05-13T05:11:09;11.70;1.00
3660;DHT22;1846;51.482;7.224;2023-05-13T05:13:36;11.70;1.00
3660;DHT22;1846;51.482;7.224;2023-05-13T05:16:03;11.80;4.10
3660;DHT22;1846;51.482;7.224;2023-05-13T05:18:30;11.80;3.30
3660;DHT22;1846;51.482;7.224;2023-05-13T05:20:57;11.90;3.50
3660;DHT22;1846;51.482;7.224;2023-05-13T05:23:25;11.90;4.60
3660;DHT22;1846;51.482;7.224;2023-05-13T05:25:52;12.00;1.00
3660;DHT22;1846;51.482;7.224;2023-05-13T05:28:19;12.10;1.00
3660;DHT22;1846;51.482;7.224;2023-05-13T05:30:46;12.20;1.00
3660;DHT22;1846;51.482;7.224;2023-05-13T05:33:13;12.20;1.00
3660;DHT22;1846;51.482;7.224;2023-05-13T05:35:39;12.30;1.00
3660;DHT22;1846;51.482;7.224;2023-05-13T05:38:07;12.40;1.00
3660;DHT22;1846;51.482;7.224;2023-05-13T05:40:39;12.50;1.00
3660;DHT22;1846;51.482;7.224;2023-05-13T05:43:06;12.60;1.00
3660;DHT22;1846;51.482;7.224;2023-05-13T05:45:34;12.70;1.00
3660;DHT22;1846;51.482;7.224;2023-05-13T05:48:01;12.80;1.00
3660;DHT22;1846;51.482;7.224;2023-05-13T05:50:28;12.80;1.00
3660;DHT22;1846;51.482;7.224;2023-05-13T05:52:55;13.00;99.90
3660;DHT22;1846;51.482;7.224;2023-05-13T05:55:23;13.10;1.00
3660;DHT22;1846;51.482;7.224;2023-05-13T05:57:52;13.30;1.00
3660;DHT22;1846;51.482;7.224;2023-05-13T06:00:19;13.30;99.90
3660;DHT22;1846;51.482;7.224;2023-05-13T06:02:46;13.30;99.90
3660;DHT22;1846;51.482;7.224;2023-05-13T06:05:13;13.30;99.90
3660;DHT22;1846;51.482;7.224;2023-05-13T06:07:40;13.40;99.90
3660;DHT22;1846;51.482;7.224;2023-05-13T06:10:07;13.60;1.00
3660;DHT22;1846;51.482;7.224;2023-05-13T06:12:34;13.70;99.90
3660;DHT22;1846;51.482;7.224;2023-05-13T06:15:03;13.80;99.90
3660;DHT22;1846;51.482;7.224;2023-05-13T06:17:31;13.90;99.90
3660;DHT22;1846;51.482;7.224;2023-05-13T06:19:57;14.00;1.00
3660;DHT22;1846;51.482;7.224;2023-05-13T06:22:24;14.20;99.90
3660;DHT22;1846;51.482;7.224;2023-05-13T06:24:51;14.20;99.90
3660;DHT22;1846;51.482;7.224;2023-05-13T06:27:18;14.30;99.90
3660;DHT22;1846;51.482;7.224;2023-05-13T06:29:45;14.40;99.90
3660;DHT22;1846;51.482;7.224;2023-05-13T06:32:13;14.50;99.90
3660;DHT22;1846;51.482;7.224;2023-05-13T06:34:40;14.50;99.90
3660;DHT22;1846;51.482;7.224;2023-05-13T06:37:10;14.50;99.90
3660;DHT22;1846;51.482;7.224;2023-05-13T06:39:38;14.50;99.90
3660;DHT22;1846;51.482;7.224;2023-05-13T06:42:05;14.50;99.90
3660;DHT22;1846;51.482;7.224;2023-05-13T06:44:32;14.50;99.90
3660;DHT22;1846;51.482;7.224;2023-05-13T06:46:58;14.50;99.90
3660;DHT22;1846;51.482;7.224;2023-05-13T06:49:28;14.60;99.90
3660;DHT22;1846;51.482;7.224;2023-05-13T06:51:55;14.60;99.90
3660;DHT22;1846;51.482;7.224;2023-05-13T06:54:22;14.60;99.90
3660;DHT22;1846;51.482;7.224;2023-05-13T06:56:51;14.70;99.90
3660;DHT22;1846;51.482;7.224;2023-05-13T06:59:17;14.70;1.00
3660;DHT22;1846;51.482;7.224;2023-05-13T07:01:44;14.80;1.00
3660;DHT22;1846;51.482;7.224;2023-05-13T07:04:11;14.80;1.00
3660;DHT22;1846;51.482;7.224;2023-05-13T07:06:39;15.00;1.00
3660;DHT22;1846;51.482;7.224;2023-05-13T07:09:06;15.00;1.00
3660;DHT22;1846;51.482;7.224;2023-05-13T07:11:34;15.20;1.00
3660;DHT22;1846;51.482;7.224;2023-05-13T07:14:01;15.50;99.90
3660;DHT22;1846;51.482;7.224;2023-05-13T07:16:27;15.60;99.90
3660;DHT22;1846;51.482;7.224;2023-05-13T07:18:54;15.90;99.90
3660;DHT22;1846;51.482;7.224;2023-05-13T07:21:21;16.10;99.90
3660;DHT22;1846;51.482;7.224;2023-05-13T07:23:49;16.30;99.90
3660;DHT22;1846;51.482;7.224;2023-05-13T07:26:16;16.40;99.90
3660;DHT22;1846;51.482;7.224;2023-05-13T07:28:43;16.50;99.90
3660;DHT22;1846;51.482;7.224;2023-05-13T07:31:10;16.60;99.90
3660;DHT22;1846;51.482;7.224;2023-05-13T07:33:36;16.80;99.90
3660;DHT22;1846;51.482;7.224;2023-05-13T07:36:04;16.90;99.90
3660;DHT22;1846;51.482;7.224;2023-05-13T07:38:31;17.00;99.90
3660;DHT22;1846;51.482;7.224;2023-05-13T07:41:00;17.10;99.90
3660;DHT22;1846;51.482;7.224;2023-05-13T07:43:26;17.20;99.90
3660;DHT22;1846;51.482;7.224;2023-05-13T07:45:53;17.30;99.90
3660;DHT22;1846;51.482;7.224;2023-05-13T07:48:20;17.40;99.90
3660;DHT22;1846;51.482;7.224;2023-05-13T07:50:49;17.50;99.90
3660;DHT22;1846;51.482;7.224;2023-05-13T07:53:15;17.60;99.90
3660;DHT22;1846;51.482;7.224;2023-05-13T07:55:42;17.80;99.90
3660;DHT22;1846;51.482;7.224;2023-05-13T07:58:10;17.90;99.90
3660;DHT22;1846;51.482;7.224;2023-05-13T08:00:37;18.10;99.90
3660;DHT22;1846;51.482;7.224;2023-05-13T08:03:04;18.20;99.90
3660;DHT22;1846;51.482;7.224;2023-05-13T08:05:31;18.20;99.90
3660;DHT22;1846;51.482;7.224;2023-05-13T08:07:58;18.20;99.90
3660;DHT22;1846;51.482;7.224;2023-05-13T08:10:26;18.20;99.90
3660;DHT22;1846;51.482;7.224;2023-05-13T08:12:53;18.20;99.90
3660;DHT22;1846;51.482;7.224;2023-05-13T08:15:23;18.30;99.90
3660;DHT22;1846;51.482;7.224;2023-05-13T08:17:50;18.20;99.90
3660;DHT22;1846;51.482;7.224;2023-05-13T08:20:18;18.30;99.90
3660;DHT22;1846;51.482;7.224;2023-05-13T08:22:45;18.20;99.90
3660;DHT22;1846;51.482;7.224;2023-05-13T08:25:12;18.30;99.90
3660;DHT22;1846;51.482;7.224;2023-05-13T08:27:39;18.10;99.90
3660;DHT22;1846;51.482;7.224;2023-05-13T08:30:07;18.10;99.90
3660;DHT22;1846;51.482;7.224;2023-05-13T08:32:35;18.10;99.90
3660;DHT22;1846;51.482;7.224;2023-05-13T08:35:02;18.20;99.90
3660;DHT22;1846;51.482;7.224;2023-05-13T08:37:29;18.30;99.90
3660;DHT22;1846;51.482;7.224;2023-05-13T08:39:56;18.50;99.90
3660;DHT22;1846;51.482;7.224;2023-05-13T08:42:28;18.60;99.90
3660;DHT22;1846;51.482;7.224;2023-05-13T08:44:58;18.70;99.90
3660;DHT22;1846;51.482;7.224;2023-05-13T08:47:34;18.80;99.90
3660;DHT22;1846;51.482;7.224;2023-05-13T08:50:06;18.90;99.90
3660;DHT22;1846;51.482;7.224;2023-05-13T08:52:34;19.00;99.90
3660;DHT22;1846;51.482;7.224;2023-05-13T08:55:01;19.00;99.90
3660;DHT22;1846;51.482;7.224;2023-05-13T08:57:29;19.10;99.90
3660;DHT22;1846;51.482;7.224;2023-05-13T08:59:56;19.10;99.90
3660;DHT22;1846;51.482;7.224;2023-05-13T09:02:23;19.20;99.90
3660;DHT22;1846;51.482;7.224;2023-05-13T09:04:53;19.20;99.90
3660;DHT22;1846;51.482;7.224;2023-05-13T09:07:21;19.40;99.90
3660;DHT22;1846;51.482;7.224;2023-05-13T09:09:49;19.70;99.90
3660;DHT22;1846;51.482;7.224;2023-05-13T09:12:46;19.70;99.90
3660;DHT22;1846;51.482;7.224;2023-05-13T09:15:14;19.80;99.90
3660;DHT22;1846;51.482;7.224;2023-05-13T09:17:42;20.00;99.90
3660;DHT22;1846;51.482;7.224;2023-05-13T09:20:11;20.00;99.90
3660;DHT22;1846;51.482;7.224;2023-05-13T09:22:46;20.10;99.90
3660;DHT22;1846;51.482;7.224;2023-05-13T09:25:13;20.30;99.90
3660;DHT22;1846;51.482;7.224;2023-05-13T09:27:42;20.40;99.90
3660;DHT22;1846;51.482;7.224;2023-05-13T09:30:10;20.70;99.90
3660;DHT22;1846;51.482;7.224;2023-05-13T09:32:37;20.70;99.90
3660;DHT22;1846;51.482;7.224;2023-05-13T09:35:15;20.80;99.90
3660;DHT22;1846;51.482;7.224;2023-05-13T09:37:45;20.80;99.90
3660;DHT22;1846;51.482;7.224;2023-05-13T09:40:13;20.80;99.90
3660;DHT22;1846;51.482;7.224;2023-05-13T09:42:41;20.90;99.90
3660;DHT22;1846;51.482;7.224;2023-05-13T09:45:09;21.00;99.90
3660;DHT22;1846;51.482;7.224;2023-05-13T09:47:36;21.00;99.90
3660;DHT22;1846;51.482;7.224;2023-05-13T09:50:08;21.20;99.90
3660;DHT22;1846;51.482;7.224;2023-05-13T09:52:36;21.30;99.90
3660;DHT22;1846;51.482;7.224;2023-05-13T09:55:08;21.40;99.90
3660;DHT22;1846;51.482;7.224;2023-05-13T09:57:35;21.50;99.90
3660;DHT22;1846;51.482;7.224;2023-05-13T10:00:04;21.60;99.90
3660;DHT22;1846;51.482;7.224;2023-05-13T10:02:32;21.70;99.90
3660;DHT22;1846;51.482;7.224;2023-05-13T10:05:00;21.70;99.90
3660;DHT22;1846;51.482;7.224;2023-05-13T10:07:27;21.90;99.90
3660;DHT22;1846;51.482;7.224;2023-05-13T10:09:57;22.10;99.90
3660;DHT22;1846;51.482;7.224;2023-05-13T10:12:26;22.80;99.90
3660;DHT22;1846;51.482;7.224;2023-05-13T10:14:54;24.00;99.90
3660;DHT22;1846;51.482;7.224;2023-05-13T10:17:22;25.20;99.90
3660;DHT22;1846;51.482;7.224;2023-05-13T10:19:53;26.20;99.90
3660;DHT22;1846;51.482;7.224;2023-05-13T10:22:24;27.40;99.90
3660;DHT22;1846;51.482;7.224;2023-05-13T10:24:53;28.40;99.90
3660;DHT22;1846;51.482;7.224;2023-05-13T10:27:25;29.30;99.90
3660;DHT22;1846;51.482;7.224;2023-05-13T10:29:53;29.90;99.90
3660;DHT22;1846;51.482;7.224;2023-05-13T10:32:21;30.50;99.90
3660;DHT22;1846;51.482;7.224;2023-05-13T10:34:51;30.20;99.90
3660;DHT22;1846;51.482;7.224;2023-05-13T10:37:49;29.70;99.90
3660;DHT22;1846;51.482;7.224;2023-05-13T10:40:43;30.50;99.90
3660;DHT22;1846;51.482;7.224;2023-05-13T10:43:17;31.50;99.90
3660;DHT22;1846;51.482;7.224;2023-05-13T10:45:45;31.00;99.90
3660;DHT22;1846;51.482;7.224;2023-05-13T10:48:13;30.70;99.90
3660;DHT22;1846;51.482;7.224;2023-05-13T10:50:50;30.30;99.90
3660;DHT22;1846;51.482;7.224;2023-05-13T10:53:20;31.10;99.90
3660;DHT22;1846;51.482;7.224;2023-05-13T10:55:52;31.90;99.90
3660;DHT22;1846;51.482;7.224;2023-05-13T10:58:20;31.50;99.90
3660;DHT22;1846;51.482;7.224;2023-05-13T11:00:49;31.00;99.90
3660;DHT22;1846;51.482;7.224;2023-05-13T11:03:27;31.30;99.90
3660;DHT22;1846;51.482;7.224;2023-05-13T11:06:00;30.60;99.90
3660;DHT22;1846;51.482;7.224;2023-05-13T11:08:36;29.80;99.90
3660;DHT22;1846;51.482;7.224;2023-05-13T11:11:16;30.30;99.90
3660;DHT22;1846;51.482;7.224;2023-05-13T11:13:45;30.50;99.90
3660;DHT22;1846;51.482;7.224;2023-05-13T11:16:14;30.30;99.90
3660;DHT22;1846;51.482;7.224;2023-05-13T11:18:41;30.00;99.90
3660;DHT22;1846;51.482;7.224;2023-05-13T11:21:08;30.30;99.90
3660;DHT22;1846;51.482;7.224;2023-05-13T11:23:52;30.80;99.90
3660;DHT22;1846;51.482;7.224;2023-05-13T11:26:21;31.60;99.90
3660;DHT22;1846;51.482;7.224;2023-05-13T11:28:57;32.00;99.90
3660;DHT22;1846;51.482;7.224;2023-05-13T11:31:26;31.70;99.90
3660;DHT22;1846;51.482;7.224;2023-05-13T11:34:06;31.00;99.90
3660;DHT22;1846;51.482;7.224;2023-05-13T11:36:35;31.40;99.90
3660;DHT22;1846;51.482;7.224;2023-05-13T11:39:06;31.60;99.90
3660;DHT22;1846;51.482;7.224;2023-05-13T11:41:33;32.40;99.90
3660;DHT22;1846;51.482;7.224;2023-05-13T11:44:03;33.20;99.90
3660;DHT22;1846;51.482;7.224;2023-05-13T11:46:31;34.00;99.90
3660;DHT22;1846;51.482;7.224;2023-05-13T11:48:58;34.30;99.90
3660;DHT22;1846;51.482;7.224;2023-05-13T11:51:25;34.40;99.90
3660;DHT22;1846;51.482;7.224;2023-05-13T11:53:58;34.20;99.90
3660;DHT22;1846;51.482;7.224;2023-05-13T11:56:26;33.50;99.90
3660;DHT22;1846;51.482;7.224;2023-05-13T11:58:53;34.00;99.90
3660;DHT22;1846;51.482;7.224;2023-05-13T12:01:22;33.90;99.90
3660;DHT22;1846;51.482;7.224;2023-05-13T12:03:49;33.70;99.90
3660;DHT22;1846;51.482;7.224;2023-05-13T12:06:26;33.30;99.90
3660;DHT22;1846;51.482;7.224;2023-05-13T12:08:53;33.10;99.90
3660;DHT22;1846;51.482;7.224;2023-05-13T12:11:20;32.90;99.90
3660;DHT22;1846;51.482;7.224;2023-05-13T12:13:47;33.10;99.90
3660;DHT22;1846;51.482;7.224;2023-05-13T12:16:14;33.40;99.90
3660;DHT22;1846;51.482;7.224;2023-05-13T12:18:54;33.80;99.90
3660;DHT22;1846;51.482;7.224;2023-05-13T12:21:21;33.00;99.90
3660;DHT22;1846;51.482;7.224;2023-05-13T12:23:48;31.90;99.90
3660;DHT22;1846;51.482;7.224;2023-05-13T12:26:15;31.80;99.90
3660;DHT22;1846;51.482;7.224;2023-05-13T12:28:42;30.80;99.90
3660;DHT22;1846;51.482;7.224;2023-05-13T12:31:15;29.90;99.90
3660;DHT22;1846;51.482;7.224;2023-05-13T12:33:44;29.40;99.90
3660;DHT22;1846;51.482;7.224;2023-05-13T12:36:15;29.30;99.90
3660;DHT22;1846;51.482;7.224;2023-05-13T12:38:57;29.20;99.90
3660;DHT22;1846;51.482;7.224;2023-05-13T12:41:28;29.80;99.90
3660;DHT22;1846;51.482;7.224;2023-05-13T12:43:59;30.60;99.90
3660;DHT22;1846;51.482;7.224;2023-05-13T12:46:27;31.40;99.90
3660;DHT22;1846;51.482;7.224;2023-05-13T12:48:57;32.10;99.90
3660;DHT22;1846;51.482;7.224;2023-05-13T12:51:24;32.00;99.90
3660;DHT22;1846;51.482;7.224;2023-05-13T12:53:51;31.40;99.90
3660;DHT22;1846;51.482;7.224;2023-05-13T12:56:19;30.70;99.90
3660;DHT22;1846;51.482;7.224;2023-05-13T12:58:47;29.60;99.90
3660;DHT22;1846;51.482;7.224;2023-05-13T13:01:14;29.10;99.90
3660;DHT22;1846;51.482;7.224;2023-05-13T13:03:40;28.60;99.90
3660;DHT22;1846;51.482;7.224;2023-05-13T13:06:09;28.00;99.90
3660;DHT22;1846;51.482;7.224;2023-05-13T13:08:35;27.50;99.90
3660;DHT22;1846;51.482;7.224;2023-05-13T13:11:02;27.20;99.90
3660;DHT22;1846;51.482;7.224;2023-05-13T13:13:29;26.80;99.10
3660;DHT22;1846;51.482;7.224;2023-05-13T13:15:57;26.50;97.60
3660;DHT22;1846;51.482;7.224;2023-05-13T13:18:24;26.20;96.00
3660;DHT22;1846;51.482;7.224;2023-05-13T13:20:51;25.80;94.00
3660;DHT22;1846;51.482;7.224;2023-05-13T13:23:19;25.80;93.80
3660;DHT22;1846;51.482;7.224;2023-05-13T13:25:46;25.80;94.00
3660;DHT22;1846;51.482;7.224;2023-05-13T13:28:13;25.50;92.10
3660;DHT22;1846;51.482;7.224;2023-05-13T13:30:40;25.40;90.80
3660;DHT22;1846;51.482;7.224;2023-05-13T13:33:11;25.00;89.20
3660;DHT22;1846;51.482;7.224;2023-05-13T13:35:38;24.80;87.30
3660;DHT22;1846;51.482;7.224;2023-05-13T13:38:05;24.60;85.30
3660;DHT22;1846;51.482;7.224;2023-05-13T13:40:34;24.40;83.90
3660;DHT22;1846;51.482;7.224;2023-05-13T13:43:01;24.30;93.20
3660;DHT22;1846;51.482;7.224;2023-05-13T13:45:28;24.30;84.10
3660;DHT22;1846;51.482;7.224;2023-05-13T13:47:55;24.40;84.20
3660;DHT22;1846;51.482;7.224;2023-05-13T13:50:22;24.30;83.60
3660;DHT22;1846;51.482;7.224;2023-05-13T13:52:49;24.30;84.10
3660;DHT22;1846;51.482;7.224;2023-05-13T13:55:17;24.50;86.00
3660;DHT22;1846;51.482;7.224;2023-05-13T13:57:45;24.80;89.80
3660;DHT22;1846;51.482;7.224;2023-05-13T14:00:13;25.20;92.00
3660;DHT22;1846;51.482;7.224;2023-05-13T14:02:40;25.70;92.90
3660;DHT22;1846;51.482;7.224;2023-05-13T14:05:07;26.00;93.40
3660;DHT22;1846;51.482;7.224;2023-05-13T14:07:34;25.90;93.50
3660;DHT22;1846;51.482;7.224;2023-05-13T14:10:02;25.50;90.80
3660;DHT22;1846;51.482;7.224;2023-05-13T14:12:28;25.30;88.00
3660;DHT22;1846;51.482;7.224;2023-05-13T14:14:57;24.90;84.80
3660;DHT22;1846;51.482;7.224;2023-05-13T14:17:24;24.50;78.90
3660;DHT22;1846;51.482;7.224;2023-05-13T14:19:51;24.30;77.20
3660;DHT22;1846;51.482;7.224;2023-05-13T14:22:19;24.00;74.40
3660;DHT22;1846;51.482;7.224;2023-05-13T14:24:49;23.80;72.70
3660;DHT22;1846;51.482;7.224;2023-05-13T14:27:16;23.70;74.00
3660;DHT22;1846;51.482;7.224;2023-05-13T14:29:44;23.50;74.20
3660;DHT22;1846;51.482;7.224;2023-05-13T14:32:12;23.50;74.70
3660;DHT22;1846;51.482;7.224;2023-05-13T14:34:39;23.40;74.90
3660;DHT22;1846;51.482;7.224;2023-05-13T14:37:06;23.10;74.90
3660;DHT22;1846;51.482;7.224;2023-05-13T14:39:33;22.90;78.10
3660;DHT22;1846;51.482;7.224;2023-05-13T14:42:00;22.80;83.90
3660;DHT22;1846;51.482;7.224;2023-05-13T14:44:27;22.20;99.90
3660;DHT22;1846;51.482;7.224;2023-05-13T14:46:54;21.50;99.90
3660;DHT22;1846;51.482;7.224;2023-05-13T14:49:22;20.90;99.90
3660;DHT22;1846;51.482;7.224;2023-05-13T14:51:49;20.10;99.90
3660;DHT22;1846;51.482;7.224;2023-05-13T14:54:16;19.50;99.90
3660;DHT22;1846;51.482;7.224;2023-05-13T14:56:43;19.00;99.90
3660;DHT22;1846;51.482;7.224;2023-05-13T14:59:10;18.50;99.90
3660;DHT22;1846;51.482;7.224;2023-05-13T15:01:37;18.30;99.90
3660;DHT22;1846;51.482;7.224;2023-05-13T15:04:04;18.10;99.90
3660;DHT22;1846;51.482;7.224;2023-05-13T15:06:32;18.10;99.90
3660;DHT22;1846;51.482;7.224;2023-05-13T15:08:59;18.00;99.90
3660;DHT22;1846;51.482;7.224;2023-05-13T15:11:26;18.10;99.90
3660;DHT22;1846;51.482;7.224;2023-05-13T15:13:53;18.30;99.90
3660;DHT22;1846;51.482;7.224;2023-05-13T15:16:20;18.50;99.90
3660;DHT22;1846;51.482;7.224;2023-05-13T15:18:47;18.70;99.90
3660;DHT22;1846;51.482;7.224;2023-05-13T15:21:14;18.80;99.90
3660;DHT22;1846;51.482;7.224;2023-05-13T15:23:42;18.80;99.90
3660;DHT22;1846;51.482;7.224;2023-05-13T15:26:09;19.00;99.90
3660;DHT22;1846;51.482;7.224;2023-05-13T15:28:36;19.30;99.90
3660;DHT22;1846;51.482;7.224;2023-05-13T15:31:03;19.60;99.90
3660;DHT22;1846;51.482;7.224;2023-05-13T15:33:30;19.90;99.90
3660;DHT22;1846;51.482;7.224;2023-05-13T15:35:57;20.30;99.90
3660;DHT22;1846;51.482;7.224;2023-05-13T15:38:24;20.70;99.90
3660;DHT22;1846;51.482;7.224;2023-05-13T15:40:53;21.00;97.70
3660;DHT22;1846;51.482;7.224;2023-05-13T15:43:19;21.40;96.10
3660;DHT22;1846;51.482;7.224;2023-05-13T15:45:46;21.70;92.80
3660;DHT22;1846;51.482;7.224;2023-05-13T15:48:15;21.80;92.00
3660;DHT22;1846;51.482;7.224;2023-05-13T15:50:42;21.90;92.20
3660;DHT22;1846;51.482;7.224;2023-05-13T15:53:09;21.90;91.50
3660;DHT22;1846;51.482;7.224;2023-05-13T15:55:36;22.00;91.40
3660;DHT22;1846;51.482;7.224;2023-05-13T15:58:05;22.10;91.60
3660;DHT22;1846;51.482;7.224;2023-05-13T16:00:32;22.10;91.40
3660;DHT22;1846;51.482;7.224;2023-05-13T16:02:59;22.20;88.50
3660;DHT22;1846;51.482;7.224;2023-05-13T16:05:25;22.20;89.80
3660;DHT22;1846;51.482;7.224;2023-05-13T16:07:52;22.10;86.80
3660;DHT22;1846;51.482;7.224;2023-05-13T16:10:20;22.30;87.90
3660;DHT22;1846;51.482;7.224;2023-05-13T16:12:47;22.10;86.90